Date,TemperatureHighF,TemperatureAvgF,TemperatureLowF,DewpointHighF,DewpointAvgF,DewpointLowF,HumidityHigh,HumidityAvg,HumidityLow,PressureMaxIn,PressureMinIn,WindSpeedMaxMPH,WindSpeedAvgMPH,GustSpeedMaxMPH,PrecipitationSumIn
2013-1-1,34,23,10,14,5,-18,61,47,1,29.79,29.55,13,5,13,0.00
2013-1-2,24,14,2,10,-6,-25,67,43,7,30.03,29.73,9,3,9,0.00
2013-1-3,18,8,-5,6,-7,-20,69,55,19,30.03,29.74,5,1,5,0.00
2013-1-4,36,29,16,23,7,-29,60,44,1,29.75,29.64,12,4,12,0.01
2013-1-5,35,31,25,21,16,10,62,53,41,30.05,29.72,14,5,14,0.01
2013-1-6,38,31,24,21,-7,-24,53,20,1,29.94,29.69,9,1,9,0.03
2013-1-7,36,26,15,14,-2,-27,59,34,1,30.18,29.78,9,2,9,0.01
2013-1-8,38,20,9,26,-2,-24,64,39,17,30.16,30.04,2,0,2,0.00
2013-1-9,43,27,15,30,-1,-31,63,33,5,30.15,29.76,18,4,18,0.00
2013-1-10,40,33,24,28,21,6,66,60,45,30.35,29.98,17,3,17,0.00
2013-1-11,34,30,24,18,-3,-18,54,25,1,30.32,29.87,6,2,6,0.14
2013-1-12,39,36,34,-13,-16,-17,1,1,1,29.92,29.87,5,2,5,0.00
2013-1-13,40,38,35,-12,-14,-16,1,1,1,29.90,29.71,10,2,10,0.00
2013-1-14,43,37,32,24,5,-14,57,28,1,30.12,29.65,12,3,12,0.01
2013-1-15,33,31,29,19,15,6,57,50,37,30.15,30.01,3,0,3,0.00
2013-1-16,31,29,24,7,-15,-25,38,9,1,30.01,29.60,0,0,0,0.00
2013-1-17,35,28,20,12,0,-24,55,33,1,29.97,29.62,6,1,6,0.00
2013-1-18,21,17,9,8,3,-5,57,54,47,30.21,29.91,3,0,3,0.00
2013-1-19,46,34,21,28,18,8,57,51,43,30.00,29.49,9,2,9,0.02
2013-1-20,46,35,18,28,10,-29,55,39,1,29.83,29.27,20,7,20,0.03
2013-1-21,24,19,14,-1,-25,-32,34,8,1,29.84,29.60,6,2,6,0.00
2013-1-22,16,11,7,3,-16,-36,57,31,1,29.93,29.59,17,5,17,0.00
2013-1-23,7,1,-7,-5,-10,-18,64,59,43,30.02,29.90,14,2,14,0.00
2013-1-24,10,0,-11,-1,-12,-21,64,56,23,30.20,29.95,17,4,17,0.00
2013-1-25,18,10,2,7,-2,-7,64,59,48,30.22,29.87,11,1,11,0.00
2013-1-26,17,8,2,5,-5,-19,63,54,31,30.15,29.86,15,2,15,0.00
2013-1-27,22,12,2,7,-2,-22,63,53,26,30.33,30.14,10,2,10,0.00
2013-1-28,27,21,16,10,-8,-27,64,32,1,30.26,29.73,10,1,10,0.00
2013-1-29,35,31,27,-16,-19,-22,1,1,1,29.92,29.75,8,1,9,0.49
2013-1-30,50,41,35,-4,-12,-17,1,1,1,29.75,29.01,12,2,12,0.52
2013-1-31,49,45,38,18,-7,-14,43,3,1,29.01,28.74,25,5,25,0.23
2013-2-1,25,21,17,14,7,-16,64,56,20,29.95,29.42,16,8,18,0.00
2013-2-2,24,18,13,12,6,-1,64,60,52,29.98,29.81,7,2,7,0.00
2013-2-3,27,18,8,16,4,-19,65,54,16,29.81,29.55,5,1,5,0.00
2013-2-4,22,18,12,7,-12,-30,56,29,1,29.72,29.57,10,4,10,0.00
2013-2-5,25,15,7,12,-2,-15,62,46,28,29.80,29.66,4,1,4,0.02
2013-2-6,28,22,15,16,4,-23,64,48,1,30.15,29.67,17,5,17,0.00
2013-2-7,26,17,8,10,4,-4,64,57,48,30.31,30.10,11,2,11,0.00
2013-2-8,29,25,21,13,-2,-24,62,36,1,30.09,29.62,8,3,8,0.00
2013-2-9,25,17,5,8,-2,-25,64,46,1,30.19,29.68,12,5,12,0.00
2013-2-10,28,16,2,14,3,-11,64,56,43,30.27,29.99,6,2,6,0.02
2013-2-11,22,22,21,11,9,8,61,57,55,29.99,29.84,6,2,6,0.00
2013-2-12,35,35,35,18,15,13,51,44,41,29.64,29.59,18,12,18,0.00
2013-2-13,39,37,35,24,23,22,58,56,54,29.59,29.52,3,2,3,0.00
2013-2-14,33,26,19,19,8,-7,60,47,29,29.71,29.61,3,1,3,0.00
2013-2-16,29,26,22,14,11,9,58,52,45,29.75,29.70,9,4,9,0.00
2013-2-18,21,11,7,8,1,-2,70,66,56,30.04,29.80,13,8,13,0.00
2013-2-19,31,30,29,20,-4,-20,64,24,1,29.56,29.44,2,1,2,0.00
2013-2-20,26,25,21,13,12,3,61,57,44,29.69,29.57,7,6,7,0.00
2013-2-21,21,18,15,5,1,-20,63,50,16,30.20,29.68,8,3,8,0.00
2013-2-22,33,32,32,21,21,20,62,61,61,30.03,29.98,0,0,0,0.00
2013-2-23,36,34,33,13,-9,-17,40,11,1,29.85,29.66,0,0,0,0.16
2013-2-24,34,32,30,15,-8,-20,48,16,1,29.74,29.61,3,0,3,0.02
2013-2-25,38,36,32,17,10,-13,43,35,14,30.02,29.93,4,1,4,0.00
2013-2-26,37,30,22,21,-3,-26,52,26,1,30.07,29.77,2,0,2,0.00
2013-2-27,39,35,31,-13,-16,-19,1,1,1,29.68,29.36,2,0,2,0.46
2013-2-28,38,37,35,2,-13,-16,21,3,1,29.39,29.36,2,0,2,0.01
2013-3-1,37,34,29,12,0,-17,36,24,1,29.63,29.51,4,2,4,0.00
2013-3-2,29,27,26,0,-7,-23,32,23,6,29.62,29.60,3,1,3,0.00
2013-3-3,28,25,22,8,-2,-27,45,33,6,29.60,29.54,11,8,11,0.00
2013-3-4,27,26,24,-6,-18,-25,24,10,1,29.69,29.61,13,9,13,0.00
2013-3-5,39,33,26,23,12,-8,51,43,22,29.85,29.82,6,2,6,0.00
2013-3-6,41,40,39,23,20,11,51,46,31,29.86,29.84,10,5,10,0.00
2013-3-7,38,36,34,23,14,-11,54,43,14,29.94,29.92,6,3,6,0.00
2013-3-8,41,35,29,24,10,-21,50,37,1,30.13,29.98,11,7,11,0.11
2013-3-9,48,36,26,27,11,-23,52,37,2,30.16,30.09,8,3,8,0.00
2013-3-11,45,43,41,24,11,-2,43,27,16,29.77,29.73,9,3,9,0.00
2013-3-12,39,38,35,-13,-14,-16,1,1,1,29.68,29.56,7,4,7,0.33
2013-3-13,41,36,30,22,-1,-20,49,21,1,29.69,29.58,11,3,11,0.00
2013-3-14,24,22,20,7,4,-5,54,47,27,29.73,29.67,19,12,19,0.00
2013-3-15,35,28,18,16,-6,-21,55,25,1,29.75,29.43,14,4,14,0.02
2013-3-16,29,29,29,-21,-21,-21,5,5,5,29.59,29.59,3,3,3,0.00
2013-3-17,32,27,20,14,8,-13,54,44,20,30.13,29.89,12,6,12,0.00
2013-3-18,33,26,14,12,7,-3,55,46,37,30.22,29.95,11,4,11,0.00
2013-3-19,36,35,34,-15,-16,-17,1,1,1,29.51,29.48,4,3,4,0.02
2013-3-20,34,30,26,14,1,-20,45,30,2,29.58,29.56,10,6,10,0.01
2013-3-22,29,28,28,-21,-22,-22,10,2,1,29.62,29.59,6,4,6,0.00
2013-3-23,37,34,32,20,14,8,50,44,36,29.71,29.63,12,8,12,0.02
2013-3-24,42,34,30,24,12,0,52,40,28,29.71,29.55,5,1,5,0.02
2013-3-25,45,37,29,27,18,5,52,46,35,29.56,29.34,7,2,7,0.00
2013-3-26,34,33,32,8,3,0,35,28,23,29.50,29.45,3,2,3,0.00
2013-3-27,43,38,35,26,15,3,51,39,26,29.72,29.70,12,9,12,0.00
2013-3-30,52,50,49,28,26,26,45,40,38,29.93,29.88,9,5,9,0.00
2013-3-31,55,44,40,35,4,-12,54,20,1,29.67,29.49,11,2,11,0.07
2013-4-1,40,35,28,23,7,-16,55,34,1,29.68,29.42,22,8,22,0.10
2013-4-2,33,28,24,18,-8,-25,54,21,1,29.77,29.66,25,8,25,0.00
2013-9-2,71,61,60,41,4,3,34,1,1,29.04,28.98,22,0,22,0.24
2013-9-3,69,67,61,53,45,4,56,48,1,29.12,29.04,10,2,10,0.00
2013-9-4,76,71,64,57,50,24,56,49,23,29.24,29.11,10,2,10,0.00
2013-9-5,66,62,58,47,37,1,58,42,1,29.36,29.21,8,2,9,0.00
2013-9-6,67,65,62,46,43,40,49,45,42,29.52,29.35,9,2,9,0.02
2013-9-8,65,50,47,45,35,31,60,56,49,29.43,29.39,2,0,2,0.02
2013-9-9,67,55,46,49,35,8,57,48,21,29.51,29.41,5,1,5,0.00
2013-9-10,81,76,60,49,19,3,52,8,1,29.43,29.25,4,1,5,0.78
2013-9-11,90,85,74,70,52,14,53,36,1,29.34,29.21,9,2,11,0.00
2013-9-12,79,71,65,55,20,7,44,11,1,29.07,28.98,5,1,5,0.01
2013-9-13,60,57,52,43,33,2,53,42,3,29.19,29.04,4,2,4,0.00
2013-9-16,59,53,44,44,35,5,60,52,12,29.63,29.41,6,2,6,0.01
2013-9-17,59,46,43,42,26,23,54,46,45,29.70,29.64,2,0,2,0.00
2013-9-20,66,61,60,48,35,22,54,39,22,29.21,29.20,4,1,4,0.00
2013-9-21,76,64,54,57,27,-1,56,28,1,29.21,28.90,5,1,5,0.01
2013-9-22,59,56,52,41,16,-1,59,24,1,29.17,28.92,10,3,10,0.00
2013-9-23,49,46,43,35,25,2,59,47,18,29.36,29.33,3,2,3,0.00
2013-9-24,61,56,50,43,40,35,57,55,52,29.33,29.24,8,3,8,0.00
2013-9-28,70,58,52,51,33,1,57,42,13,29.53,29.53,1,0,1,0.00
2013-9-29,72,70,67,54,53,50,55,54,53,29.37,29.33,4,2,4,0.00
2013-10-2,73,72,71,56,53,46,55,51,41,29.23,29.21,11,6,11,0.00
2013-10-3,72,70,68,52,50,46,51,48,43,29.35,29.32,6,2,6,0.00
2013-10-4,61,59,55,4,2,0,1,1,1,29.34,29.32,3,1,3,0.00
2013-10-6,61,58,56,4,2,0,1,1,1,29.31,29.27,8,2,8,0.00
2013-10-13,57,56,56,41,41,40,57,56,55,29.60,29.59,2,1,2,0.00
2013-10-14,56,55,55,39,38,37,53,52,52,29.60,29.59,1,1,1,0.00
2013-10-15,60,59,56,40,25,13,46,28,18,29.37,29.35,2,1,2,0.00
2013-10-20,58,55,52,43,37,36,56,52,47,29.24,29.18,9,5,9,0.11
2013-10-21,66,60,46,42,37,-8,57,44,9,29.34,29.19,8,4,8,0.00
2013-10-22,51,50,48,37,36,35,60,59,57,29.07,29.05,10,6,10,0.00
2013-10-23,47,42,37,33,24,16,58,49,38,29.04,28.98,2,0,2,0.00
2013-10-25,45,42,40,31,20,10,58,42,28,29.42,29.39,7,2,7,0.01
2013-10-26,47,46,41,32,29,5,58,52,23,29.41,29.09,14,4,14,0.00
2013-10-27,47,42,39,33,28,20,61,57,45,29.34,29.22,8,2,8,0.00
2013-10-29,34,34,34,22,22,22,62,62,62,29.60,29.60,0,0,0,0.00
2013-10-30,53,41,34,38,27,22,62,59,46,29.60,29.46,3,0,3,0.02
2013-10-31,44,43,42,-10,-10,-11,1,1,1,29.20,29.17,5,4,5,0.04
2013-11-1,69,62,50,51,43,38,64,52,37,28.97,28.64,13,7,13,0.02
2013-11-2,53,48,42,40,28,-9,62,48,7,29.14,28.92,9,4,9,0.01
2013-11-3,42,38,32,25,21,19,61,52,45,29.68,29.14,9,5,9,0.00
2013-11-4,41,38,35,23,22,21,60,52,47,29.94,29.88,4,2,4,0.00
2013-11-5,52,50,47,35,34,32,57,54,51,29.77,29.75,6,3,6,0.00
2013-11-6,62,60,58,46,44,43,58,56,53,29.42,29.33,6,4,6,0.00
2013-11-7,48,47,46,31,8,-7,55,23,1,29.16,29.13,12,7,12,0.02
2013-11-9,41,40,39,29,27,27,62,61,60,29.29,29.16,3,1,3,0.00
2013-11-10,47,44,41,34,26,8,61,50,21,29.14,29.04,16,9,16,0.04
2013-11-11,44,42,41,30,27,20,60,55,42,29.20,29.18,7,4,7,0.00
2013-11-12,30,28,26,18,14,-7,62,56,20,29.49,29.33,10,4,10,0.00
2013-11-14,39,36,35,22,22,21,58,54,50,29.34,29.33,2,1,2,0.00
2013-11-15,55,43,28,28,24,16,62,48,28,29.42,29.35,4,1,4,0.00
2013-11-16,56,46,41,36,31,28,60,56,47,29.51,29.48,2,1,2,0.00
2013-11-17,54,52,49,28,26,25,40,36,34,29.37,29.25,5,3,5,0.00
2013-11-18,56,54,53,40,38,36,58,54,49,28.85,28.83,8,6,8,0.00
2013-11-19,35,34,33,23,21,20,60,59,58,29.49,29.41,10,6,10,0.00
2013-11-20,36,35,32,19,18,16,58,50,44,29.87,29.83,4,3,4,0.01
2013-11-22,44,40,36,23,-12,-15,50,2,1,29.37,29.18,12,1,12,0.03
2013-11-23,40,36,35,24,16,0,61,45,23,29.30,29.12,16,8,16,0.00
2013-11-24,20,19,17,8,6,4,63,55,48,29.59,29.53,7,5,7,0.00
2013-11-26,35,33,31,14,-13,-19,43,9,1,29.44,29.17,5,2,5,0.06
2013-11-28,27,25,21,14,13,10,63,60,56,29.55,29.47,13,7,13,0.00
2013-11-29,28,21,17,16,8,4,61,57,53,29.87,29.83,4,1,4,0.00
2013-11-30,27,26,24,14,14,13,61,59,58,29.82,29.58,4,2,4,0.00
2013-12-1,34,29,24,18,14,11,61,53,40,29.58,29.28,3,1,3,0.01
2013-12-2,38,34,32,20,0,-18,48,25,3,29.28,29.14,3,2,3,0.01
2013-12-3,39,36,32,23,3,-18,54,27,1,29.25,29.17,6,3,6,0.00
2013-12-8,28,28,27,16,16,15,60,60,59,29.69,29.63,11,4,11,0.00
2013-12-9,36,32,26,22,14,-9,59,49,21,29.63,29.21,13,5,13,0.00
2013-12-10,35,26,23,22,14,10,62,59,54,29.22,29.12,18,6,18,0.00
2013-12-11,28,26,23,16,14,10,62,60,52,29.43,29.22,17,6,17,0.00
2013-12-12,24,16,8,13,5,-1,66,62,59,29.57,29.27,9,3,9,0.01
2013-12-13,20,20,20,8,8,8,60,60,60,29.27,29.27,7,7,7,0.00
2013-12-14,12,11,9,2,0,-1,65,62,56,29.72,29.44,8,2,8,0.00
2013-12-15,26,24,23,12,8,5,58,49,44,29.01,28.98,6,2,6,0.00
2013-12-16,24,14,2,12,3,-6,68,62,44,29.48,29.00,11,3,11,0.00
2013-12-17,8,2,-3,-3,-6,-10,69,66,62,29.48,29.31,9,4,9,0.00
2013-12-20,40,37,8,24,-7,-15,62,13,1,29.31,29.13,5,1,5,0.01
2013-12-21,52,49,44,-3,-5,-10,1,1,1,29.09,29.07,9,2,13,0.00
2013-12-22,46,44,43,28,22,12,49,42,28,29.25,29.18,10,3,10,0.00
2013-12-23,43,40,29,20,-4,-12,66,15,1,29.48,29.23,9,3,9,0.00
2013-12-24,29,27,26,20,17,16,68,67,66,29.50,29.40,10,4,10,0.00
2013-12-25,26,17,14,17,7,5,68,64,61,29.79,29.43,4,1,4,0.00
2013-12-27,32,31,18,22,20,7,65,63,58,29.72,29.45,12,3,12,0.00
2013-12-29,34,31,28,16,5,-6,59,34,21,29.46,29.07,5,1,6,0.00
2013-12-30,34,16,11,15,7,3,71,68,46,29.49,29.07,19,4,19,0.00
2013-12-31,17,13,11,5,4,3,71,64,54,29.47,29.40,12,2,13,0.00
2014-1-1,20,17,15,11,8,5,69,67,61,29.64,29.45,10,1,12,0.00
2014-1-2,15,9,8,6,1,0,71,70,68,29.59,29.23,8,2,8,0.00